METAR Data
IDs: Format: Raw Decoded Include TAF

Data at: 2006 UTC 18 Oct 2018

KWVI 181953Z AUTO 25007KT 10SM CLR 20/11 A3012 RMK AO2 SLP197 T02000106

KSNS 181953Z 9SM CLR 23/07 A3010 RMK AO2 SLP203 T02280067

KMRY 181954Z VRB04KT 7SM CLR 17/09 A3013 RMK AO2 SLP215 T01670094

KSJC 181953Z 32007KT 8SM CLR 19/10 A3012 RMK AO2 SLP199 T01940100

KSFO 181956Z 06004KT 10SM CLR 16/12 A3012 RMK AO2 SLP200 T01610117